DLH594 EDDF-DNAA
Flight info
| Callsign | DLH594 |
|---|---|
| Flight time | N/A |
| Altitude | 37000 |
| Route | ANEKI3F ANEKI Y163 NATOR/N0462F390 DCT TRA DCT RIPUS DCT GERSA DCT SOSON DCT ODINA DCT PIDAD DCT TALEP DCT VAREK DCT ERPIN DCT ETOIL DCT CIRTA UA605 CSO UR978 AS/N0468F410 UA604 KAN/N0468F400 UR778 KUA UV456 OXORU OXORU1R |
| Aircraft | A346/H-SDE2E3FGHIJ3J4J5M1P2RWXYZ/LB1D1 |
Departure
| Time | 2026-05-03 23:50 |
|---|---|
| Airport | Frankfurt Main Airport (EDDF) |
Arrival
| Time | N/A |
|---|---|
| Airport | Nnamdi Azikiwe International Airport (DNAA) |
| Time | Latitude | Longitude | Altitude | Speed | Heading |
|---|---|---|---|---|---|
| 2026-05-03 23:05 | 50.04750 | 8.56392 | 364 ft | 0 kts | 340° |
| 2026-05-03 23:29 | 50.04737 | 8.56399 | 370 ft | 4 kts | 340° |
| 2026-05-03 23:29 | 50.04712 | 8.56414 | 367 ft | 4 kts | 340° |
| 2026-05-03 23:30 | 50.04687 | 8.56428 | 372 ft | 3 kts | 339° |
| 2026-05-03 23:30 | 50.04673 | 8.56435 | 368 ft | 4 kts | 8° |
| 2026-05-03 23:30 | 50.04667 | 8.56430 | 372 ft | 4 kts | 57° |
| 2026-05-03 23:30 | 50.04658 | 8.56397 | 370 ft | 4 kts | 71° |
| 2026-05-03 23:31 | 50.04649 | 8.56357 | 371 ft | 4 kts | 73° |
| 2026-05-03 23:31 | 50.04644 | 8.56330 | 369 ft | 0 kts | 71° |
| 2026-05-03 23:37 | 50.04647 | 8.56345 | 368 ft | 14 kts | 71° |
| 2026-05-03 23:37 | 50.04648 | 8.56430 | 368 ft | 7 kts | 112° |
| 2026-05-03 23:37 | 50.04607 | 8.56472 | 371 ft | 9 kts | 177° |
| 2026-05-03 23:38 | 50.04543 | 8.56430 | 371 ft | 12 kts | 225° |
| 2026-05-03 23:38 | 50.04499 | 8.56308 | 370 ft | 14 kts | 247° |
| 2026-05-03 23:38 | 50.04469 | 8.56183 | 370 ft | 13 kts | 250° |
| 2026-05-03 23:38 | 50.04439 | 8.56072 | 371 ft | 10 kts | 233° |
| 2026-05-03 23:39 | 50.04375 | 8.56040 | 369 ft | 10 kts | 167° |
| 2026-05-03 23:39 | 50.04306 | 8.56095 | 367 ft | 10 kts | 127° |
| 2026-05-03 23:39 | 50.04274 | 8.56204 | 367 ft | 11 kts | 132° |
| 2026-05-03 23:39 | 50.04199 | 8.56264 | 363 ft | 11 kts | 159° |
| 2026-05-03 23:40 | 50.04147 | 8.56347 | 367 ft | 13 kts | 93° |
| 2026-05-03 23:40 | 50.04175 | 8.56490 | 367 ft | 15 kts | 69° |
| 2026-05-03 23:40 | 50.04214 | 8.56644 | 368 ft | 16 kts | 69° |
| 2026-05-03 23:40 | 50.04255 | 8.56816 | 373 ft | 18 kts | 70° |
| 2026-05-03 23:41 | 50.04298 | 8.56994 | 373 ft | 10 kts | 70° |
| 2026-05-03 23:41 | 50.04311 | 8.57052 | 373 ft | 6 kts | 70° |
| 2026-05-03 23:41 | 50.04329 | 8.57123 | 373 ft | 8 kts | 70° |
| 2026-05-03 23:41 | 50.04352 | 8.57222 | 371 ft | 11 kts | 70° |
| 2026-05-03 23:42 | 50.04383 | 8.57352 | 374 ft | 14 kts | 70° |
| 2026-05-03 23:42 | 50.04420 | 8.57507 | 372 ft | 17 kts | 70° |
| 2026-05-03 23:42 | 50.04463 | 8.57687 | 376 ft | 19 kts | 70° |
| 2026-05-03 23:42 | 50.04511 | 8.57890 | 376 ft | 19 kts | 70° |
| 2026-05-03 23:43 | 50.04545 | 8.58032 | 376 ft | 14 kts | 69° |
| 2026-05-03 23:43 | 50.04584 | 8.58192 | 377 ft | 16 kts | 69° |
| 2026-05-03 23:43 | 50.04620 | 8.58344 | 379 ft | 11 kts | 69° |
| 2026-05-03 23:43 | 50.04634 | 8.58402 | 378 ft | 0 kts | 70° |
| 2026-05-03 23:47 | 50.04635 | 8.58403 | 378 ft | 1 kts | 70° |
| 2026-05-03 23:47 | 50.04640 | 8.58427 | 378 ft | 4 kts | 70° |
| 2026-05-03 23:47 | 50.04653 | 8.58485 | 380 ft | 7 kts | 78° |
| 2026-05-03 23:47 | 50.04638 | 8.58560 | 382 ft | 8 kts | 141° |
| 2026-05-03 23:48 | 50.04578 | 8.58601 | 382 ft | 11 kts | 160° |
| 2026-05-03 23:48 | 50.04502 | 8.58613 | 380 ft | 12 kts | 204° |
| 2026-05-03 23:48 | 50.04461 | 8.58490 | 381 ft | 14 kts | 251° |
| 2026-05-03 23:48 | 50.04454 | 8.58455 | 381 ft | 1 kts | 251° |
| 2026-05-03 23:49 | 50.04429 | 8.58343 | 382 ft | 25 kts | 250° |
| 2026-05-03 23:49 | 50.04289 | 8.57764 | 374 ft | 94 kts | 249° |
| 2026-05-03 23:49 | 50.03976 | 8.56452 | 367 ft | 166 kts | 250° |
| 2026-05-03 23:49 | 50.03518 | 8.54502 | 668 ft | 204 kts | 249° |
| 2026-05-03 23:50 | 50.03034 | 8.52435 | 1740 ft | 199 kts | 249° |
| 2026-05-03 23:50 | 50.02690 | 8.51140 | 2441 ft | 193 kts | 240° |
| 2026-05-03 23:50 | 50.01247 | 8.49477 | 3428 ft | 209 kts | 201° |
| 2026-05-03 23:50 | 49.99793 | 8.49088 | 4203 ft | 216 kts | 186° |
| 2026-05-03 23:51 | 49.98295 | 8.49546 | 4734 ft | 228 kts | 158° |
| 2026-05-03 23:51 | 49.96949 | 8.51036 | 4991 ft | 250 kts | 146° |
| 2026-05-03 23:51 | 49.95395 | 8.52442 | 4936 ft | 264 kts | 170° |
| 2026-05-03 23:51 | 49.93578 | 8.52817 | 4993 ft | 265 kts | 179° |
| 2026-05-03 23:52 | 49.91736 | 8.53060 | 4988 ft | 267 kts | 180° |
| 2026-05-03 23:52 | 49.89845 | 8.53264 | 5449 ft | 276 kts | 180° |
| 2026-05-03 23:52 | 49.87972 | 8.53434 | 6576 ft | 271 kts | 181° |
| 2026-05-03 23:52 | 49.86101 | 8.53584 | 7644 ft | 269 kts | 181° |
| 2026-05-03 23:53 | 49.84225 | 8.53724 | 8593 ft | 271 kts | 181° |
| 2026-05-03 23:53 | 49.82332 | 8.53861 | 9535 ft | 274 kts | 181° |
| 2026-05-03 23:53 | 49.80423 | 8.53995 | 10413 ft | 277 kts | 181° |
| 2026-05-03 23:53 | 49.78457 | 8.54062 | 10978 ft | 290 kts | 184° |
| 2026-05-03 23:54 | 49.76383 | 8.53906 | 11440 ft | 308 kts | 188° |
| 2026-05-03 23:54 | 49.74192 | 8.53615 | 11907 ft | 325 kts | 188° |
| 2026-05-03 23:54 | 49.71908 | 8.53310 | 12315 ft | 343 kts | 187° |
| 2026-05-03 23:54 | 49.69482 | 8.52989 | 12872 ft | 355 kts | 187° |
| 2026-05-03 23:55 | 49.67005 | 8.52664 | 13725 ft | 359 kts | 187° |
| 2026-05-03 23:55 | 49.64488 | 8.52334 | 14501 ft | 363 kts | 187° |
| 2026-05-03 23:55 | 49.61956 | 8.52004 | 15228 ft | 368 kts | 187° |
| 2026-05-03 23:55 | 49.59389 | 8.51669 | 15951 ft | 372 kts | 187° |
| 2026-05-03 23:56 | 49.56792 | 8.51329 | 16697 ft | 377 kts | 187° |
| 2026-05-03 23:56 | 49.54161 | 8.50985 | 17425 ft | 382 kts | 187° |
| 2026-05-03 23:56 | 49.51536 | 8.50640 | 18128 ft | 386 kts | 187° |
| 2026-05-03 23:56 | 49.48844 | 8.50287 | 18786 ft | 391 kts | 188° |
| 2026-05-03 23:57 | 49.46124 | 8.49932 | 19444 ft | 394 kts | 188° |
| 2026-05-03 23:57 | 49.43385 | 8.49574 | 20121 ft | 396 kts | 188° |
| 2026-05-03 23:57 | 49.40627 | 8.49210 | 20797 ft | 399 kts | 188° |
| 2026-05-03 23:57 | 49.37850 | 8.48847 | 21462 ft | 402 kts | 188° |
| 2026-05-03 23:58 | 49.35050 | 8.48483 | 22127 ft | 405 kts | 188° |
| 2026-05-03 23:58 | 49.32228 | 8.48116 | 22790 ft | 408 kts | 188° |
| 2026-05-03 23:58 | 49.29427 | 8.47752 | 23420 ft | 411 kts | 188° |
| 2026-05-03 23:58 | 49.26499 | 8.47371 | 24002 ft | 415 kts | 188° |
| 2026-05-03 23:59 | 49.23598 | 8.46992 | 24535 ft | 418 kts | 188° |
| 2026-05-03 23:59 | 49.20692 | 8.46612 | 25035 ft | 421 kts | 188° |
| 2026-05-03 23:59 | 49.17757 | 8.46229 | 25517 ft | 425 kts | 188° |
| 2026-05-03 23:59 | 49.14796 | 8.45845 | 25997 ft | 429 kts | 188° |
| 2026-05-04 00:00 | 49.11806 | 8.45458 | 26509 ft | 432 kts | 188° |
| 2026-05-04 00:00 | 49.08804 | 8.45033 | 27023 ft | 435 kts | 190° |
| 2026-05-04 00:00 | 49.05842 | 8.44405 | 27509 ft | 437 kts | 193° |
| 2026-05-04 00:00 | 49.02849 | 8.43528 | 28017 ft | 439 kts | 195° |
| 2026-05-04 00:01 | 48.99845 | 8.42471 | 28490 ft | 442 kts | 196° |
| 2026-05-04 00:01 | 48.96837 | 8.41425 | 28931 ft | 446 kts | 196° |
| 2026-05-04 00:01 | 48.93797 | 8.40373 | 29347 ft | 450 kts | 196° |
| 2026-05-04 00:01 | 48.90732 | 8.39311 | 29823 ft | 453 kts | 196° |
| 2026-05-04 00:02 | 48.87666 | 8.38250 | 30444 ft | 451 kts | 196° |
| 2026-05-04 00:02 | 48.84620 | 8.37195 | 31093 ft | 448 kts | 196° |
| 2026-05-04 00:02 | 48.81589 | 8.36146 | 31718 ft | 445 kts | 196° |
| 2026-05-04 00:02 | 48.78622 | 8.35120 | 32294 ft | 443 kts | 196° |
| 2026-05-04 00:03 | 48.75630 | 8.34043 | 32872 ft | 440 kts | 196° |
| 2026-05-04 00:03 | 48.72659 | 8.32953 | 33485 ft | 438 kts | 196° |
| 2026-05-04 00:03 | 48.69707 | 8.31868 | 34100 ft | 435 kts | 196° |
| 2026-05-04 00:03 | 48.66769 | 8.30791 | 34623 ft | 433 kts | 196° |
| 2026-05-04 00:04 | 48.63845 | 8.29726 | 35056 ft | 432 kts | 196° |
| 2026-05-04 00:04 | 48.60924 | 8.28663 | 35447 ft | 433 kts | 196° |
| 2026-05-04 00:04 | 48.58027 | 8.27627 | 35769 ft | 434 kts | 195° |
| 2026-05-04 00:04 | 48.55048 | 8.26782 | 36056 ft | 438 kts | 191° |
| 2026-05-04 00:05 | 48.52020 | 8.26203 | 36355 ft | 440 kts | 188° |
| 2026-05-04 00:05 | 48.48953 | 8.25898 | 36655 ft | 443 kts | 185° |
| 2026-05-04 00:05 | 48.45862 | 8.25872 | 36923 ft | 446 kts | 181° |
| 2026-05-04 00:05 | 48.42754 | 8.26128 | 37021 ft | 449 kts | 178° |
| 2026-05-04 00:06 | 48.36545 | 8.27432 | 37030 ft | 451 kts | 174° |
| 2026-05-04 00:06 | 48.30389 | 8.28917 | 37029 ft | 452 kts | 174° |
| 2026-05-04 00:07 | 48.24185 | 8.30409 | 37043 ft | 452 kts | 174° |
| 2026-05-04 00:07 | 48.17970 | 8.31901 | 37044 ft | 452 kts | 174° |
| 2026-05-04 00:08 | 48.11763 | 8.33404 | 37037 ft | 452 kts | 174° |
| 2026-05-04 00:08 | 48.05550 | 8.34913 | 37048 ft | 452 kts | 174° |
| 2026-05-04 00:09 | 47.99382 | 8.36406 | 37051 ft | 452 kts | 174° |
| 2026-05-04 00:09 | 47.93170 | 8.37903 | 37052 ft | 452 kts | 174° |
| 2026-05-04 00:10 | 47.86955 | 8.39400 | 37050 ft | 452 kts | 174° |
| 2026-05-04 00:10 | 47.80741 | 8.40888 | 37053 ft | 452 kts | 174° |
| 2026-05-04 00:11 | 47.74575 | 8.42361 | 37059 ft | 452 kts | 174° |
| 2026-05-04 00:11 | 47.68353 | 8.43771 | 37047 ft | 451 kts | 176° |
| 2026-05-04 00:12 | 47.62107 | 8.44704 | 37068 ft | 451 kts | 177° |
| 2026-05-04 00:12 | 47.55856 | 8.45636 | 37073 ft | 451 kts | 177° |
| 2026-05-04 00:13 | 47.49627 | 8.46557 | 37076 ft | 451 kts | 178° |
| 2026-05-04 00:13 | 47.43376 | 8.47477 | 37072 ft | 451 kts | 178° |
| 2026-05-04 00:14 | 47.37128 | 8.48389 | 37077 ft | 451 kts | 178° |
| 2026-05-04 00:14 | 47.30876 | 8.49301 | 37072 ft | 451 kts | 178° |
| 2026-05-04 00:15 | 47.24646 | 8.50211 | 37070 ft | 451 kts | 178° |
| 2026-05-04 00:15 | 47.18399 | 8.51122 | 37069 ft | 451 kts | 178° |
| 2026-05-04 00:16 | 47.12149 | 8.52029 | 37067 ft | 451 kts | 178° |
| 2026-05-04 00:16 | 47.05894 | 8.52936 | 37054 ft | 451 kts | 178° |
| 2026-05-04 00:17 | 46.99661 | 8.53839 | 37054 ft | 452 kts | 178° |
| 2026-05-04 00:17 | 46.93408 | 8.54742 | 37074 ft | 452 kts | 178° |
| 2026-05-04 00:18 | 46.87146 | 8.55642 | 37082 ft | 452 kts | 178° |
| 2026-05-04 00:18 | 46.80894 | 8.56540 | 37074 ft | 451 kts | 178° |
| 2026-05-04 00:19 | 46.75705 | 8.57280 | 37065 ft | 452 kts | 178° |
| 2026-05-04 00:19 | 46.68432 | 8.58320 | 37099 ft | 452 kts | 178° |
| 2026-05-04 00:20 | 46.62166 | 8.59210 | 37090 ft | 452 kts | 178° |
| 2026-05-04 00:20 | 46.56966 | 8.59952 | 37109 ft | 452 kts | 178° |
| 2026-05-04 00:21 | 46.50714 | 8.60840 | 37115 ft | 452 kts | 178° |
| 2026-05-04 00:21 | 46.43439 | 8.61870 | 37118 ft | 452 kts | 178° |
| 2026-05-04 00:22 | 46.37177 | 8.62752 | 37120 ft | 452 kts | 178° |
| 2026-05-04 00:22 | 46.31979 | 8.63484 | 37128 ft | 452 kts | 178° |
| 2026-05-04 00:23 | 46.25725 | 8.64364 | 37135 ft | 452 kts | 178° |
| 2026-05-04 00:23 | 46.18458 | 8.65381 | 37128 ft | 452 kts | 178° |
| 2026-05-04 00:24 | 46.13209 | 8.66114 | 37127 ft | 452 kts | 178° |
| 2026-05-04 00:24 | 46.07000 | 8.66565 | 37130 ft | 449 kts | 183° |
| 2026-05-04 00:25 | 46.00747 | 8.66688 | 37127 ft | 450 kts | 183° |
| 2026-05-04 00:25 | 45.94490 | 8.66819 | 37130 ft | 450 kts | 183° |
| 2026-05-04 00:26 | 45.88281 | 8.66945 | 37129 ft | 450 kts | 183° |
| 2026-05-04 00:26 | 45.82020 | 8.67070 | 37119 ft | 450 kts | 183° |
| 2026-05-04 00:27 | 45.75766 | 8.67193 | 37111 ft | 451 kts | 183° |
| 2026-05-04 00:27 | 45.69488 | 8.67316 | 37130 ft | 451 kts | 183° |
| 2026-05-04 00:28 | 45.63196 | 8.67440 | 37125 ft | 451 kts | 183° |
| 2026-05-04 00:28 | 45.56963 | 8.67563 | 37101 ft | 451 kts | 183° |
| 2026-05-04 00:29 | 45.50684 | 8.67685 | 37103 ft | 451 kts | 183° |
| 2026-05-04 00:29 | 45.44407 | 8.67808 | 37090 ft | 451 kts | 183° |
| 2026-05-04 00:30 | 45.38125 | 8.67929 | 37099 ft | 451 kts | 182° |
| 2026-05-04 00:30 | 45.31890 | 8.68050 | 37103 ft | 451 kts | 182° |
| 2026-05-04 00:31 | 45.25609 | 8.68172 | 37104 ft | 451 kts | 182° |
| 2026-05-04 00:31 | 45.19335 | 8.68293 | 37103 ft | 451 kts | 182° |
| 2026-05-04 00:32 | 45.13066 | 8.68414 | 37104 ft | 450 kts | 182° |
| 2026-05-04 00:32 | 45.06798 | 8.68535 | 37104 ft | 450 kts | 182° |
| 2026-05-04 00:33 | 44.97440 | 8.68715 | 37111 ft | 450 kts | 182° |
| 2026-05-04 00:34 | 44.91182 | 8.68835 | 37112 ft | 450 kts | 182° |
| 2026-05-04 00:34 | 44.84920 | 8.68954 | 37104 ft | 450 kts | 183° |
| 2026-05-04 00:35 | 44.78671 | 8.69074 | 37120 ft | 449 kts | 183° |
| 2026-05-04 00:35 | 44.72461 | 8.69192 | 37124 ft | 449 kts | 183° |
| 2026-05-04 00:36 | 44.66215 | 8.69310 | 37125 ft | 449 kts | 182° |
| 2026-05-04 00:36 | 44.59971 | 8.69427 | 37128 ft | 448 kts | 182° |
| 2026-05-04 00:37 | 44.53739 | 8.69545 | 37126 ft | 448 kts | 182° |
| 2026-05-04 00:37 | 44.47543 | 8.69662 | 37130 ft | 448 kts | 182° |
| 2026-05-04 00:38 | 44.41316 | 8.69779 | 37126 ft | 448 kts | 182° |
| 2026-05-04 00:38 | 44.35082 | 8.69896 | 37130 ft | 448 kts | 183° |
| 2026-05-04 00:39 | 44.28849 | 8.70013 | 37132 ft | 448 kts | 182° |
| 2026-05-04 00:39 | 44.22628 | 8.70127 | 37131 ft | 447 kts | 182° |
| 2026-05-04 00:40 | 44.16450 | 8.70243 | 37135 ft | 447 kts | 182° |
| 2026-05-04 00:40 | 44.10239 | 8.70359 | 37131 ft | 447 kts | 182° |
| 2026-05-04 00:41 | 44.04024 | 8.70476 | 37124 ft | 446 kts | 182° |
| 2026-05-04 00:41 | 43.97816 | 8.70590 | 37127 ft | 446 kts | 182° |
| 2026-05-04 00:42 | 43.91647 | 8.70703 | 37124 ft | 446 kts | 182° |
| 2026-05-04 00:42 | 43.85441 | 8.70819 | 37115 ft | 445 kts | 183° |
| 2026-05-04 00:43 | 43.79242 | 8.70932 | 37117 ft | 445 kts | 183° |
| 2026-05-04 00:43 | 43.73051 | 8.71044 | 37115 ft | 445 kts | 183° |
| 2026-05-04 00:44 | 43.66861 | 8.71157 | 37108 ft | 444 kts | 183° |
| 2026-05-04 00:44 | 43.60732 | 8.71250 | 37108 ft | 443 kts | 183° |
| 2026-05-04 00:45 | 43.54569 | 8.71184 | 37104 ft | 442 kts | 186° |
| 2026-05-04 00:45 | 43.48487 | 8.70242 | 37097 ft | 439 kts | 193° |
| 2026-05-04 00:46 | 43.42574 | 8.68228 | 37100 ft | 437 kts | 200° |
| 2026-05-04 00:46 | 43.36961 | 8.65214 | 37104 ft | 435 kts | 207° |
| 2026-05-04 00:47 | 43.31485 | 8.61674 | 37105 ft | 435 kts | 207° |
| 2026-05-04 00:47 | 43.26004 | 8.58135 | 37091 ft | 435 kts | 207° |
| 2026-05-04 00:48 | 43.20522 | 8.54604 | 37095 ft | 435 kts | 207° |
| 2026-05-04 00:48 | 43.15077 | 8.51101 | 37112 ft | 435 kts | 207° |
| 2026-05-04 00:49 | 43.09589 | 8.47578 | 37104 ft | 435 kts | 207° |
| 2026-05-04 00:49 | 43.04105 | 8.44064 | 37104 ft | 435 kts | 207° |
| 2026-05-04 00:50 | 42.98618 | 8.40555 | 37098 ft | 435 kts | 207° |
| 2026-05-04 00:50 | 42.93131 | 8.37053 | 37099 ft | 435 kts | 207° |
| 2026-05-04 00:51 | 42.87643 | 8.33558 | 37107 ft | 435 kts | 207° |
| 2026-05-04 00:51 | 42.82195 | 8.30094 | 37102 ft | 435 kts | 207° |
| 2026-05-04 00:52 | 42.76707 | 8.26611 | 37104 ft | 435 kts | 207° |
| 2026-05-04 00:52 | 42.71218 | 8.23136 | 37081 ft | 435 kts | 207° |
| 2026-05-04 00:53 | 42.65723 | 8.19664 | 37099 ft | 435 kts | 207° |
| 2026-05-04 00:53 | 42.60258 | 8.16216 | 37094 ft | 435 kts | 207° |
| 2026-05-04 00:54 | 42.54762 | 8.12755 | 37098 ft | 435 kts | 207° |
| 2026-05-04 00:54 | 42.49265 | 8.09301 | 37097 ft | 435 kts | 207° |
| 2026-05-04 00:55 | 42.43765 | 8.05852 | 37099 ft | 436 kts | 207° |
| 2026-05-04 00:55 | 42.38264 | 8.02408 | 37099 ft | 436 kts | 207° |
| 2026-05-04 00:56 | 42.32797 | 7.98994 | 37090 ft | 436 kts | 207° |
| 2026-05-04 00:56 | 42.27191 | 7.95808 | 37097 ft | 437 kts | 205° |
| 2026-05-04 00:57 | 42.21561 | 7.92700 | 37100 ft | 437 kts | 205° |
| 2026-05-04 00:57 | 42.15933 | 7.89600 | 37097 ft | 437 kts | 205° |
| 2026-05-04 00:58 | 42.10291 | 7.86504 | 37090 ft | 438 kts | 205° |
| 2026-05-04 00:58 | 42.04683 | 7.83430 | 37097 ft | 438 kts | 205° |
| 2026-05-04 00:59 | 41.99032 | 7.80339 | 37098 ft | 438 kts | 205° |
| 2026-05-04 00:59 | 41.93377 | 7.77252 | 37084 ft | 438 kts | 205° |
| 2026-05-04 01:00 | 41.87705 | 7.74167 | 37093 ft | 440 kts | 205° |
| 2026-05-04 01:00 | 41.82064 | 7.71097 | 37099 ft | 441 kts | 205° |
| 2026-05-04 01:01 | 41.76375 | 7.68009 | 37097 ft | 441 kts | 205° |
| 2026-05-04 01:01 | 41.70685 | 7.64929 | 37083 ft | 441 kts | 205° |
| 2026-05-04 01:02 | 41.64992 | 7.61851 | 37095 ft | 442 kts | 205° |
| 2026-05-04 01:02 | 41.59235 | 7.58950 | 37102 ft | 444 kts | 201° |
| 2026-05-04 01:03 | 41.53292 | 7.56827 | 37096 ft | 446 kts | 196° |
| 2026-05-04 01:03 | 41.47169 | 7.55374 | 37093 ft | 447 kts | 195° |
| 2026-05-04 01:04 | 41.41037 | 7.53956 | 37091 ft | 447 kts | 195° |
| 2026-05-04 01:04 | 41.34907 | 7.52543 | 37095 ft | 447 kts | 195° |
| 2026-05-04 01:05 | 41.28813 | 7.51151 | 37077 ft | 447 kts | 195° |
| 2026-05-04 01:05 | 41.22679 | 7.49748 | 37083 ft | 447 kts | 195° |
| 2026-05-04 01:06 | 41.16546 | 7.48343 | 37082 ft | 447 kts | 195° |
| 2026-05-04 01:06 | 41.10413 | 7.46944 | 37079 ft | 447 kts | 195° |
| 2026-05-04 01:07 | 41.04314 | 7.45560 | 37087 ft | 448 kts | 196° |
| 2026-05-04 01:07 | 40.98174 | 7.44164 | 37089 ft | 448 kts | 196° |
| 2026-05-04 01:08 | 40.92030 | 7.42770 | 37087 ft | 448 kts | 196° |
| 2026-05-04 01:08 | 40.85887 | 7.41386 | 37079 ft | 448 kts | 196° |
| 2026-05-04 01:09 | 40.79734 | 7.39996 | 37087 ft | 449 kts | 196° |
| 2026-05-04 01:09 | 40.73626 | 7.38617 | 37083 ft | 448 kts | 196° |
| 2026-05-04 01:10 | 40.67473 | 7.37232 | 37078 ft | 448 kts | 196° |
| 2026-05-04 01:10 | 40.61321 | 7.35856 | 37082 ft | 449 kts | 197° |
| 2026-05-04 01:11 | 40.55158 | 7.34472 | 37078 ft | 449 kts | 197° |
| 2026-05-04 01:11 | 40.49045 | 7.33104 | 37081 ft | 449 kts | 197° |
| 2026-05-04 01:12 | 40.42884 | 7.31728 | 37087 ft | 449 kts | 197° |
| 2026-05-04 01:12 | 40.36731 | 7.30357 | 37082 ft | 449 kts | 197° |
| 2026-05-04 01:13 | 40.30573 | 7.28988 | 37075 ft | 449 kts | 197° |
| 2026-05-04 01:13 | 40.24418 | 7.27621 | 37051 ft | 449 kts | 197° |
| 2026-05-04 01:14 | 40.18297 | 7.26271 | 37074 ft | 449 kts | 197° |
| 2026-05-04 01:14 | 40.12140 | 7.24906 | 37075 ft | 449 kts | 197° |
| 2026-05-04 01:15 | 40.05975 | 7.23543 | 37070 ft | 449 kts | 197° |
| 2026-05-04 01:15 | 39.99815 | 7.22187 | 37066 ft | 449 kts | 198° |
| 2026-05-04 01:16 | 39.93688 | 7.20838 | 37069 ft | 450 kts | 198° |
| 2026-05-04 01:16 | 39.87515 | 7.19481 | 37068 ft | 450 kts | 198° |
| 2026-05-04 01:17 | 39.81344 | 7.18128 | 37068 ft | 450 kts | 198° |
| 2026-05-04 01:17 | 39.75166 | 7.16777 | 37058 ft | 451 kts | 198° |
| 2026-05-04 01:18 | 39.68949 | 7.15531 | 37059 ft | 453 kts | 196° |
| 2026-05-04 01:18 | 39.62737 | 7.14445 | 37062 ft | 453 kts | 196° |
| 2026-05-04 01:19 | 39.56489 | 7.13346 | 37052 ft | 453 kts | 196° |
| 2026-05-04 01:19 | 39.50245 | 7.12237 | 37055 ft | 453 kts | 196° |
| 2026-05-04 01:20 | 39.44000 | 7.11126 | 37056 ft | 453 kts | 196° |
| 2026-05-04 01:20 | 39.37800 | 7.10023 | 37057 ft | 453 kts | 196° |
| 2026-05-04 01:21 | 39.31556 | 7.08916 | 37049 ft | 454 kts | 196° |
| 2026-05-04 01:21 | 39.25301 | 7.07806 | 37055 ft | 454 kts | 196° |
| 2026-05-04 01:22 | 39.19043 | 7.06698 | 37057 ft | 454 kts | 196° |
| 2026-05-04 01:22 | 39.12790 | 7.05593 | 37038 ft | 454 kts | 196° |
| 2026-05-04 01:23 | 39.06570 | 7.04496 | 37050 ft | 455 kts | 196° |
| 2026-05-04 01:23 | 39.00300 | 7.03392 | 37053 ft | 455 kts | 196° |
| 2026-05-04 01:24 | 38.94020 | 7.02351 | 37050 ft | 455 kts | 196° |
| 2026-05-04 01:24 | 38.87730 | 7.01339 | 37046 ft | 457 kts | 196° |
| 2026-05-04 01:25 | 38.81463 | 7.00326 | 37048 ft | 457 kts | 196° |
| 2026-05-04 01:25 | 38.75158 | 6.99307 | 37050 ft | 457 kts | 196° |
| 2026-05-04 01:26 | 38.68845 | 6.98287 | 37050 ft | 457 kts | 196° |
| 2026-05-04 01:26 | 38.62537 | 6.97269 | 37041 ft | 457 kts | 196° |
| 2026-05-04 01:27 | 38.56263 | 6.96258 | 37049 ft | 458 kts | 196° |
| 2026-05-04 01:27 | 38.49944 | 6.95242 | 37049 ft | 458 kts | 196° |
| 2026-05-04 01:28 | 38.43623 | 6.94228 | 37028 ft | 458 kts | 196° |
| 2026-05-04 01:28 | 38.37279 | 6.93211 | 37046 ft | 460 kts | 196° |
| 2026-05-04 01:29 | 38.30930 | 6.92195 | 37051 ft | 460 kts | 196° |
| 2026-05-04 01:29 | 38.24625 | 6.91189 | 37044 ft | 460 kts | 196° |
| 2026-05-04 01:30 | 38.18275 | 6.90177 | 37041 ft | 460 kts | 196° |
| 2026-05-04 01:30 | 38.11928 | 6.89167 | 37045 ft | 460 kts | 196° |
| 2026-05-04 01:31 | 38.05580 | 6.88158 | 37042 ft | 460 kts | 196° |
| 2026-05-04 01:31 | 37.99272 | 6.87158 | 37046 ft | 460 kts | 196° |
| 2026-05-04 01:32 | 37.92911 | 6.86151 | 37037 ft | 462 kts | 196° |
| 2026-05-04 01:32 | 37.86531 | 6.85142 | 37040 ft | 462 kts | 196° |
| 2026-05-04 01:33 | 37.80149 | 6.84136 | 37044 ft | 462 kts | 196° |
| 2026-05-04 01:33 | 37.73795 | 6.83139 | 37020 ft | 460 kts | 196° |
| 2026-05-04 01:34 | 37.67491 | 6.82146 | 37037 ft | 460 kts | 196° |
| 2026-05-04 01:34 | 37.61139 | 6.81148 | 37038 ft | 460 kts | 196° |
| 2026-05-04 01:35 | 37.54787 | 6.80153 | 37035 ft | 460 kts | 196° |
| 2026-05-04 01:35 | 37.48443 | 6.79159 | 37018 ft | 459 kts | 196° |
| 2026-05-04 01:36 | 37.42116 | 6.78173 | 37029 ft | 458 kts | 196° |
| 2026-05-04 01:36 | 37.35830 | 6.77194 | 37035 ft | 458 kts | 196° |
| 2026-05-04 01:37 | 37.29503 | 6.76209 | 37033 ft | 458 kts | 196° |
| 2026-05-04 01:37 | 37.23196 | 6.75229 | 37029 ft | 455 kts | 195° |
| 2026-05-04 01:38 | 37.16956 | 6.74262 | 37035 ft | 455 kts | 195° |
| 2026-05-04 01:38 | 37.10672 | 6.73289 | 37035 ft | 455 kts | 195° |
| 2026-05-04 01:39 | 37.04390 | 6.72318 | 37023 ft | 455 kts | 195° |
| 2026-05-04 01:39 | 36.98112 | 6.71352 | 37034 ft | 455 kts | 196° |
| 2026-05-04 01:40 | 36.91829 | 6.70384 | 37040 ft | 455 kts | 196° |
| 2026-05-04 01:40 | 36.85594 | 6.69423 | 37041 ft | 455 kts | 196° |
| 2026-05-04 01:41 | 36.79310 | 6.68458 | 37033 ft | 455 kts | 196° |
| 2026-05-04 01:41 | 36.73028 | 6.67494 | 37065 ft | 455 kts | 196° |
| 2026-05-04 01:42 | 36.66751 | 6.66534 | 37070 ft | 455 kts | 196° |
| 2026-05-04 01:42 | 36.60475 | 6.65575 | 37076 ft | 454 kts | 196° |
| 2026-05-04 01:43 | 36.54239 | 6.64623 | 37093 ft | 454 kts | 195° |
| 2026-05-04 01:43 | 36.47967 | 6.63668 | 37114 ft | 454 kts | 195° |
| 2026-05-04 01:44 | 36.41695 | 6.62714 | 37123 ft | 454 kts | 195° |
| 2026-05-04 01:44 | 36.35425 | 6.61762 | 37130 ft | 454 kts | 195° |
| 2026-05-04 01:45 | 36.29093 | 6.61098 | 37117 ft | 460 kts | 190° |
| 2026-05-04 01:45 | 36.19453 | 6.61458 | 37128 ft | 465 kts | 186° |
| 2026-05-04 01:46 | 36.12994 | 6.61874 | 37126 ft | 464 kts | 186° |
| 2026-05-04 01:46 | 36.06541 | 6.62283 | 37120 ft | 465 kts | 186° |
| 2026-05-04 01:47 | 36.00073 | 6.62690 | 37120 ft | 466 kts | 186° |
| 2026-05-04 01:47 | 35.93644 | 6.63096 | 37128 ft | 466 kts | 186° |
| 2026-05-04 01:48 | 35.87173 | 6.63503 | 37126 ft | 466 kts | 186° |
| 2026-05-04 01:48 | 35.80698 | 6.63910 | 37127 ft | 466 kts | 186° |
| 2026-05-04 01:49 | 35.74230 | 6.64315 | 37132 ft | 466 kts | 186° |
| 2026-05-04 01:49 | 35.67809 | 6.64717 | 37130 ft | 466 kts | 186° |
| 2026-05-04 01:50 | 35.61334 | 6.65121 | 37139 ft | 466 kts | 186° |
| 2026-05-04 01:50 | 35.54863 | 6.65523 | 37122 ft | 466 kts | 185° |
| 2026-05-04 01:51 | 35.48380 | 6.65925 | 37144 ft | 467 kts | 185° |
| 2026-05-04 01:51 | 35.41894 | 6.66330 | 37149 ft | 467 kts | 185° |
| 2026-05-04 01:52 | 35.35455 | 6.66730 | 37160 ft | 466 kts | 185° |
| 2026-05-04 01:52 | 35.28973 | 6.67131 | 37152 ft | 466 kts | 185° |
| 2026-05-04 01:53 | 35.22492 | 6.67531 | 37168 ft | 466 kts | 185° |
| 2026-05-04 01:53 | 35.16011 | 6.67932 | 37160 ft | 466 kts | 185° |
| 2026-05-04 01:54 | 35.09571 | 6.68330 | 37165 ft | 466 kts | 185° |
| 2026-05-04 01:54 | 35.03088 | 6.68726 | 37155 ft | 467 kts | 185° |
| 2026-05-04 01:55 | 34.96607 | 6.69125 | 37160 ft | 467 kts | 185° |
| 2026-05-04 01:55 | 34.90114 | 6.69525 | 37158 ft | 467 kts | 185° |
| 2026-05-04 01:56 | 34.83668 | 6.69920 | 37148 ft | 467 kts | 185° |
| 2026-05-04 01:56 | 34.77180 | 6.70317 | 37130 ft | 467 kts | 185° |
| 2026-05-04 01:57 | 34.70685 | 6.70724 | 37134 ft | 467 kts | 185° |
| 2026-05-04 01:57 | 34.64194 | 6.71130 | 37125 ft | 467 kts | 185° |
| 2026-05-04 01:58 | 34.57699 | 6.71533 | 37125 ft | 467 kts | 185° |
| 2026-05-04 01:58 | 34.51256 | 6.71931 | 37109 ft | 467 kts | 185° |
| 2026-05-04 01:59 | 34.44760 | 6.72334 | 37116 ft | 467 kts | 185° |
| 2026-05-04 01:59 | 34.38270 | 6.72736 | 37114 ft | 467 kts | 185° |
| 2026-05-04 02:00 | 34.31776 | 6.73137 | 37112 ft | 467 kts | 185° |
| 2026-05-04 02:00 | 34.25326 | 6.73531 | 37102 ft | 467 kts | 184° |
| 2026-05-04 02:01 | 34.18836 | 6.73931 | 37113 ft | 467 kts | 184° |
| 2026-05-04 02:01 | 34.12342 | 6.74332 | 37113 ft | 467 kts | 184° |
| 2026-05-04 02:02 | 34.05853 | 6.74731 | 37099 ft | 467 kts | 184° |
| 2026-05-04 02:02 | 33.99365 | 6.75125 | 37102 ft | 467 kts | 184° |
| 2026-05-04 02:03 | 33.92921 | 6.75520 | 37106 ft | 467 kts | 184° |
| 2026-05-04 02:03 | 33.86440 | 6.75917 | 37109 ft | 467 kts | 184° |
| 2026-05-04 02:04 | 33.79951 | 6.76313 | 37110 ft | 467 kts | 184° |
| 2026-05-04 02:04 | 33.73468 | 6.76705 | 37093 ft | 466 kts | 184° |
| 2026-05-04 02:05 | 33.67033 | 6.77097 | 37102 ft | 466 kts | 184° |
| 2026-05-04 02:05 | 33.60548 | 6.77491 | 37103 ft | 466 kts | 184° |
| 2026-05-04 02:06 | 33.54070 | 6.77883 | 37104 ft | 466 kts | 184° |
| 2026-05-04 02:06 | 33.47609 | 6.78105 | 37084 ft | 464 kts | 186° |
| 2026-05-04 02:07 | 33.41149 | 6.78181 | 37102 ft | 464 kts | 186° |
| 2026-05-04 02:07 | 33.34743 | 6.78257 | 37105 ft | 464 kts | 186° |
| 2026-05-04 02:08 | 33.28286 | 6.78332 | 37106 ft | 464 kts | 186° |
| 2026-05-04 02:08 | 33.21829 | 6.78406 | 37109 ft | 464 kts | 186° |
| 2026-05-04 02:09 | 33.15369 | 6.78480 | 37108 ft | 464 kts | 186° |
| 2026-05-04 02:09 | 33.08961 | 6.78553 | 37108 ft | 464 kts | 186° |
| 2026-05-04 02:10 | 33.02508 | 6.78627 | 37112 ft | 464 kts | 186° |
| 2026-05-04 02:10 | 32.96057 | 6.78700 | 37089 ft | 464 kts | 186° |
| 2026-05-04 02:11 | 32.89593 | 6.78772 | 37104 ft | 465 kts | 186° |
| 2026-05-04 02:11 | 32.83168 | 6.78846 | 37108 ft | 465 kts | 186° |
| 2026-05-04 02:12 | 32.76704 | 6.78920 | 37111 ft | 465 kts | 186° |
| 2026-05-04 02:12 | 32.70237 | 6.78993 | 37086 ft | 465 kts | 186° |
| 2026-05-04 02:13 | 32.63765 | 6.79065 | 37104 ft | 465 kts | 186° |
| 2026-05-04 02:13 | 32.57330 | 6.79139 | 37104 ft | 465 kts | 186° |
| 2026-05-04 02:14 | 32.50853 | 6.79212 | 37105 ft | 465 kts | 186° |
| 2026-05-04 02:14 | 32.44380 | 6.79286 | 37106 ft | 465 kts | 186° |
| 2026-05-04 02:15 | 32.37903 | 6.79356 | 37097 ft | 466 kts | 186° |
| 2026-05-04 02:15 | 32.31417 | 6.79430 | 37104 ft | 466 kts | 185° |
| 2026-05-04 02:16 | 32.24974 | 6.79503 | 37099 ft | 466 kts | 185° |
| 2026-05-04 02:16 | 32.18488 | 6.79576 | 37097 ft | 466 kts | 185° |
| 2026-05-04 02:17 | 32.12001 | 6.79647 | 37085 ft | 466 kts | 185° |
| 2026-05-04 02:17 | 32.05514 | 6.79720 | 37093 ft | 466 kts | 185° |
| 2026-05-04 02:18 | 31.99072 | 6.79793 | 37086 ft | 466 kts | 185° |
| 2026-05-04 02:18 | 31.92582 | 6.79865 | 37088 ft | 466 kts | 185° |
| 2026-05-04 02:19 | 31.86092 | 6.79937 | 37085 ft | 466 kts | 185° |
| 2026-05-04 02:19 | 31.79605 | 6.80009 | 37086 ft | 466 kts | 185° |
| 2026-05-04 02:20 | 31.73159 | 6.80081 | 37087 ft | 466 kts | 185° |
| 2026-05-04 02:20 | 31.66669 | 6.80153 | 37081 ft | 466 kts | 185° |
| 2026-05-04 02:21 | 31.60181 | 6.80225 | 37062 ft | 466 kts | 185° |
| 2026-05-04 02:21 | 31.53695 | 6.80296 | 37074 ft | 466 kts | 185° |
| 2026-05-04 02:22 | 31.47210 | 6.80367 | 37079 ft | 466 kts | 185° |
| 2026-05-04 02:22 | 31.40771 | 6.80438 | 37075 ft | 466 kts | 185° |
| 2026-05-04 02:23 | 31.34287 | 6.80510 | 37078 ft | 466 kts | 185° |
| 2026-05-04 02:23 | 31.27796 | 6.80581 | 37070 ft | 466 kts | 185° |
| 2026-05-04 02:24 | 31.21305 | 6.80652 | 37070 ft | 467 kts | 185° |
| 2026-05-04 02:24 | 31.14856 | 6.80723 | 37070 ft | 467 kts | 185° |
| 2026-05-04 02:25 | 31.08362 | 6.80794 | 37070 ft | 466 kts | 185° |
| 2026-05-04 02:25 | 31.01869 | 6.80865 | 37060 ft | 467 kts | 185° |
| 2026-05-04 02:26 | 30.95374 | 6.80935 | 37061 ft | 467 kts | 185° |
| 2026-05-04 02:26 | 30.88880 | 6.81006 | 37062 ft | 467 kts | 185° |
| 2026-05-04 02:27 | 30.82423 | 6.81077 | 37059 ft | 467 kts | 185° |
| 2026-05-04 02:27 | 30.75930 | 6.81147 | 37041 ft | 467 kts | 185° |
| 2026-05-04 02:28 | 30.69423 | 6.81217 | 37054 ft | 468 kts | 185° |
| 2026-05-04 02:28 | 30.62913 | 6.81288 | 37056 ft | 468 kts | 185° |
| 2026-05-04 02:29 | 30.56448 | 6.81358 | 37055 ft | 468 kts | 185° |
| 2026-05-04 02:29 | 30.49939 | 6.81428 | 37055 ft | 468 kts | 185° |
| 2026-05-04 02:30 | 30.43430 | 6.81499 | 37048 ft | 468 kts | 185° |
| 2026-05-04 02:30 | 30.36923 | 6.81569 | 37049 ft | 468 kts | 185° |
| 2026-05-04 02:31 | 30.30457 | 6.81638 | 37047 ft | 468 kts | 185° |
| 2026-05-04 02:31 | 30.23950 | 6.81708 | 37045 ft | 468 kts | 185° |
| 2026-05-04 02:32 | 30.17438 | 6.81777 | 37043 ft | 468 kts | 185° |
| 2026-05-04 02:32 | 30.10918 | 6.81847 | 37046 ft | 468 kts | 185° |
| 2026-05-04 02:33 | 30.04444 | 6.81917 | 37034 ft | 468 kts | 185° |
| 2026-05-04 02:33 | 29.97929 | 6.81987 | 37044 ft | 468 kts | 185° |
| 2026-05-04 02:34 | 29.91408 | 6.82056 | 37028 ft | 469 kts | 185° |
| 2026-05-04 02:34 | 29.84882 | 6.82125 | 37031 ft | 469 kts | 185° |
| 2026-05-04 02:35 | 29.78356 | 6.82195 | 37033 ft | 469 kts | 185° |
| 2026-05-04 02:35 | 29.71877 | 6.82264 | 37032 ft | 469 kts | 185° |
| 2026-05-04 02:36 | 29.65352 | 6.82333 | 37029 ft | 469 kts | 185° |
| 2026-05-04 02:36 | 29.58828 | 6.82403 | 37022 ft | 469 kts | 185° |
| 2026-05-04 02:37 | 29.52306 | 6.82472 | 37020 ft | 469 kts | 185° |
| 2026-05-04 02:37 | 29.45830 | 6.82540 | 37020 ft | 469 kts | 185° |
| 2026-05-04 02:38 | 29.39307 | 6.82609 | 37018 ft | 469 kts | 185° |
| 2026-05-04 02:38 | 29.32782 | 6.82679 | 37013 ft | 469 kts | 186° |
| 2026-05-04 02:39 | 29.26260 | 6.82748 | 37014 ft | 469 kts | 186° |
| 2026-05-04 02:39 | 29.19736 | 6.82816 | 37015 ft | 469 kts | 186° |
| 2026-05-04 02:40 | 29.13255 | 6.82884 | 37009 ft | 469 kts | 186° |
| 2026-05-04 02:40 | 29.06727 | 6.82953 | 36987 ft | 469 kts | 186° |
| 2026-05-04 02:41 | 29.00199 | 6.83023 | 37004 ft | 469 kts | 186° |
| 2026-05-04 02:41 | 28.93674 | 6.83090 | 37006 ft | 469 kts | 186° |
| 2026-05-04 02:42 | 28.87143 | 6.83158 | 37007 ft | 469 kts | 186° |
| 2026-05-04 02:42 | 28.80659 | 6.83226 | 37005 ft | 469 kts | 186° |
| 2026-05-04 02:43 | 28.74128 | 6.83295 | 36994 ft | 469 kts | 186° |
| 2026-05-04 02:43 | 28.67600 | 6.83363 | 36995 ft | 469 kts | 186° |
| 2026-05-04 02:44 | 28.61122 | 6.83430 | 36995 ft | 469 kts | 186° |
| 2026-05-04 02:44 | 28.54597 | 6.83498 | 36993 ft | 469 kts | 186° |
| 2026-05-04 02:45 | 28.48075 | 6.83566 | 36973 ft | 469 kts | 186° |
| 2026-05-04 02:45 | 28.41539 | 6.83633 | 36986 ft | 469 kts | 186° |
| 2026-05-04 02:46 | 28.35006 | 6.83700 | 36984 ft | 470 kts | 186° |
| 2026-05-04 02:46 | 28.28520 | 6.83767 | 36986 ft | 470 kts | 186° |
| 2026-05-04 02:47 | 28.21984 | 6.83834 | 36983 ft | 470 kts | 186° |
| 2026-05-04 02:47 | 28.15441 | 6.83905 | 36970 ft | 472 kts | 185° |
| 2026-05-04 02:48 | 28.08851 | 6.84407 | 36986 ft | 476 kts | 181° |
| 2026-05-04 02:48 | 28.02298 | 6.85139 | 36979 ft | 476 kts | 181° |
| 2026-05-04 02:49 | 27.95718 | 6.85874 | 36976 ft | 476 kts | 181° |
| 2026-05-04 02:49 | 27.89131 | 6.86604 | 36959 ft | 476 kts | 181° |
| 2026-05-04 02:50 | 27.83637 | 6.87213 | 36965 ft | 478 kts | 181° |
| 2026-05-04 02:50 | 27.75940 | 6.88062 | 36976 ft | 479 kts | 181° |
| 2026-05-04 02:51 | 27.69313 | 6.88793 | 36971 ft | 478 kts | 181° |
| 2026-05-04 02:51 | 27.62687 | 6.89523 | 36959 ft | 478 kts | 181° |
| 2026-05-04 02:52 | 27.57180 | 6.90129 | 36964 ft | 479 kts | 181° |
| 2026-05-04 02:52 | 27.50551 | 6.90857 | 36960 ft | 479 kts | 181° |
| 2026-05-04 02:53 | 27.42845 | 6.91702 | 36963 ft | 479 kts | 181° |
| 2026-05-04 02:53 | 27.37340 | 6.92306 | 36952 ft | 479 kts | 181° |
| 2026-05-04 02:54 | 27.30713 | 6.93031 | 36963 ft | 479 kts | 181° |
| 2026-05-04 02:54 | 27.24074 | 6.93758 | 36959 ft | 480 kts | 181° |
| 2026-05-04 02:55 | 27.14102 | 6.94846 | 36955 ft | 480 kts | 181° |
| 2026-05-04 02:56 | 27.07497 | 6.95567 | 36955 ft | 480 kts | 181° |
| 2026-05-04 02:56 | 27.00848 | 6.96291 | 36955 ft | 480 kts | 181° |
| 2026-05-04 02:57 | 26.94194 | 6.97016 | 36950 ft | 482 kts | 181° |
| 2026-05-04 02:57 | 26.87526 | 6.97740 | 36955 ft | 481 kts | 181° |
| 2026-05-04 02:58 | 26.80913 | 6.98458 | 36945 ft | 481 kts | 181° |
| 2026-05-04 02:58 | 26.74250 | 6.99179 | 36949 ft | 481 kts | 181° |
| 2026-05-04 02:59 | 26.67579 | 6.99902 | 36941 ft | 482 kts | 181° |
| 2026-05-04 02:59 | 26.60908 | 7.00626 | 36949 ft | 483 kts | 181° |
| 2026-05-04 03:00 | 26.54267 | 7.01342 | 36950 ft | 483 kts | 182° |
| 2026-05-04 03:00 | 26.47590 | 7.02060 | 36954 ft | 481 kts | 181° |
| 2026-05-04 03:01 | 26.40925 | 7.02778 | 36962 ft | 481 kts | 181° |
| 2026-05-04 03:01 | 26.34264 | 7.03497 | 36954 ft | 481 kts | 181° |
| 2026-05-04 03:02 | 26.27653 | 7.04207 | 36967 ft | 480 kts | 181° |
| 2026-05-04 03:02 | 26.20997 | 7.04922 | 36960 ft | 480 kts | 181° |
| 2026-05-04 03:03 | 26.14347 | 7.05634 | 36970 ft | 480 kts | 181° |
| 2026-05-04 03:03 | 26.07688 | 7.06348 | 36965 ft | 480 kts | 182° |
| 2026-05-04 03:04 | 26.01075 | 7.07056 | 36974 ft | 481 kts | 182° |
| 2026-05-04 03:04 | 25.94411 | 7.07777 | 36988 ft | 481 kts | 181° |
| 2026-05-04 03:05 | 25.87748 | 7.08508 | 36998 ft | 480 kts | 181° |
| 2026-05-04 03:05 | 25.81102 | 7.09232 | 36999 ft | 481 kts | 181° |
| 2026-05-04 03:06 | 25.74487 | 7.09952 | 36992 ft | 480 kts | 181° |
| 2026-05-04 03:06 | 25.67838 | 7.10676 | 37006 ft | 480 kts | 181° |
| 2026-05-04 03:07 | 25.61194 | 7.11397 | 37005 ft | 480 kts | 181° |
| 2026-05-04 03:07 | 25.54551 | 7.12117 | 37010 ft | 480 kts | 181° |
| 2026-05-04 03:08 | 25.47902 | 7.12838 | 37011 ft | 480 kts | 181° |
| 2026-05-04 03:08 | 25.41305 | 7.13550 | 37002 ft | 479 kts | 181° |
| 2026-05-04 03:09 | 25.34667 | 7.14269 | 37005 ft | 479 kts | 181° |
| 2026-05-04 03:09 | 25.28029 | 7.14987 | 37016 ft | 479 kts | 181° |
| 2026-05-04 03:10 | 25.21397 | 7.15702 | 37011 ft | 479 kts | 181° |
| 2026-05-04 03:10 | 25.14802 | 7.16412 | 36978 ft | 479 kts | 181° |
| 2026-05-04 03:11 | 25.08176 | 7.17124 | 37003 ft | 478 kts | 181° |
| 2026-05-04 03:11 | 25.01554 | 7.17837 | 37004 ft | 478 kts | 181° |
| 2026-05-04 03:12 | 24.94936 | 7.18548 | 37003 ft | 478 kts | 181° |
| 2026-05-04 03:12 | 24.88358 | 7.19257 | 37004 ft | 478 kts | 181° |
| 2026-05-04 03:13 | 24.81739 | 7.19970 | 36990 ft | 478 kts | 181° |
| 2026-05-04 03:13 | 24.75123 | 7.20682 | 37005 ft | 477 kts | 181° |
| 2026-05-04 03:14 | 24.68509 | 7.21391 | 37011 ft | 477 kts | 181° |
| 2026-05-04 03:14 | 24.61942 | 7.22095 | 37005 ft | 477 kts | 181° |
| 2026-05-04 03:15 | 24.55329 | 7.22804 | 37005 ft | 478 kts | 181° |
| 2026-05-04 03:15 | 24.48715 | 7.23511 | 37007 ft | 477 kts | 181° |
| 2026-05-04 03:16 | 24.42102 | 7.24218 | 37012 ft | 477 kts | 181° |
| 2026-05-04 03:16 | 24.35490 | 7.24924 | 37011 ft | 478 kts | 181° |
| 2026-05-04 03:17 | 24.28921 | 7.25625 | 37013 ft | 477 kts | 181° |
| 2026-05-04 03:17 | 24.22306 | 7.26329 | 37013 ft | 477 kts | 181° |
| 2026-05-04 03:18 | 24.15693 | 7.27036 | 37022 ft | 478 kts | 181° |
| 2026-05-04 03:18 | 24.09081 | 7.27738 | 37021 ft | 477 kts | 181° |
| 2026-05-04 03:19 | 24.02513 | 7.28434 | 37013 ft | 477 kts | 181° |
| 2026-05-04 03:19 | 23.95900 | 7.29136 | 37020 ft | 477 kts | 181° |
| 2026-05-04 03:20 | 23.89286 | 7.29837 | 37001 ft | 477 kts | 181° |
| 2026-05-04 03:20 | 23.82671 | 7.30539 | 37003 ft | 478 kts | 182° |
| 2026-05-04 03:21 | 23.76054 | 7.31238 | 37010 ft | 478 kts | 182° |
| 2026-05-04 03:21 | 23.69485 | 7.31931 | 37001 ft | 478 kts | 182° |
| 2026-05-04 03:22 | 23.62865 | 7.32630 | 37000 ft | 478 kts | 182° |
| 2026-05-04 03:22 | 23.56253 | 7.33327 | 36977 ft | 477 kts | 182° |
| 2026-05-04 03:23 | 23.49698 | 7.34066 | 36985 ft | 478 kts | 180° |
| 2026-05-04 03:23 | 23.43112 | 7.35013 | 36985 ft | 477 kts | 180° |
| 2026-05-04 03:24 | 23.36525 | 7.35968 | 36998 ft | 477 kts | 180° |
| 2026-05-04 03:24 | 23.29936 | 7.36920 | 36972 ft | 477 kts | 180° |
| 2026-05-04 03:25 | 23.23356 | 7.37869 | 36970 ft | 477 kts | 180° |
| 2026-05-04 03:25 | 23.16830 | 7.38810 | 36972 ft | 476 kts | 180° |
| 2026-05-04 03:26 | 23.10269 | 7.39754 | 36969 ft | 476 kts | 180° |
| 2026-05-04 03:26 | 23.03710 | 7.40696 | 36966 ft | 476 kts | 180° |
| 2026-05-04 03:27 | 22.97148 | 7.41639 | 36964 ft | 476 kts | 180° |
| 2026-05-04 03:27 | 22.90632 | 7.42572 | 36947 ft | 475 kts | 180° |
| 2026-05-04 03:28 | 22.84074 | 7.43513 | 36957 ft | 475 kts | 180° |
| 2026-05-04 03:28 | 22.77519 | 7.44452 | 36958 ft | 475 kts | 180° |
| 2026-05-04 03:29 | 22.70966 | 7.45389 | 36958 ft | 475 kts | 180° |
| 2026-05-04 03:29 | 22.64460 | 7.46319 | 36947 ft | 475 kts | 180° |
| 2026-05-04 03:30 | 22.57907 | 7.47254 | 36937 ft | 475 kts | 180° |
| 2026-05-04 03:30 | 22.51358 | 7.48188 | 36940 ft | 475 kts | 180° |
| 2026-05-04 03:31 | 22.44809 | 7.49122 | 36946 ft | 475 kts | 180° |
| 2026-05-04 03:31 | 22.38303 | 7.50049 | 36939 ft | 475 kts | 180° |
| 2026-05-04 03:32 | 22.31750 | 7.50981 | 36937 ft | 475 kts | 180° |
| 2026-05-04 03:32 | 22.25207 | 7.51909 | 36918 ft | 474 kts | 179° |
| 2026-05-04 03:33 | 22.18660 | 7.52839 | 36929 ft | 474 kts | 179° |
| 2026-05-04 03:33 | 22.12123 | 7.53767 | 36919 ft | 474 kts | 179° |
| 2026-05-04 03:34 | 22.05625 | 7.54688 | 36923 ft | 474 kts | 179° |
| 2026-05-04 03:34 | 21.99089 | 7.55613 | 36909 ft | 474 kts | 179° |
| 2026-05-04 03:35 | 21.92552 | 7.56537 | 36906 ft | 473 kts | 179° |
| 2026-05-04 03:35 | 21.86022 | 7.57460 | 36902 ft | 473 kts | 179° |
| 2026-05-04 03:36 | 21.79498 | 7.58381 | 36911 ft | 473 kts | 179° |
| 2026-05-04 03:36 | 21.73010 | 7.59296 | 36891 ft | 473 kts | 179° |
| 2026-05-04 03:37 | 21.66478 | 7.60216 | 36906 ft | 474 kts | 179° |
| 2026-05-04 03:37 | 21.59945 | 7.61137 | 36883 ft | 473 kts | 179° |
| 2026-05-04 03:38 | 21.53425 | 7.62055 | 36892 ft | 472 kts | 179° |
| 2026-05-04 03:38 | 21.46959 | 7.62963 | 36892 ft | 472 kts | 179° |
| 2026-05-04 03:39 | 21.40443 | 7.63878 | 36894 ft | 472 kts | 179° |
| 2026-05-04 03:39 | 21.33930 | 7.64791 | 36890 ft | 472 kts | 179° |
| 2026-05-04 03:40 | 21.27422 | 7.65703 | 36886 ft | 472 kts | 179° |
| 2026-05-04 03:40 | 21.20955 | 7.66609 | 36887 ft | 472 kts | 179° |
| 2026-05-04 03:41 | 21.14444 | 7.67520 | 36889 ft | 472 kts | 179° |
| 2026-05-04 03:41 | 21.07935 | 7.68429 | 36882 ft | 472 kts | 179° |
| 2026-05-04 03:42 | 21.01421 | 7.69339 | 36882 ft | 472 kts | 179° |
| 2026-05-04 03:42 | 20.94911 | 7.70147 | 36867 ft | 468 kts | 182° |
| 2026-05-04 03:43 | 20.88459 | 7.70676 | 36878 ft | 468 kts | 183° |
| 2026-05-04 03:43 | 20.81965 | 7.71195 | 36880 ft | 468 kts | 183° |
| 2026-05-04 03:44 | 20.75468 | 7.71717 | 36876 ft | 468 kts | 183° |
| 2026-05-04 03:44 | 20.69016 | 7.72236 | 36875 ft | 468 kts | 183° |
| 2026-05-04 03:45 | 20.62519 | 7.72759 | 36858 ft | 468 kts | 183° |
| 2026-05-04 03:45 | 20.56030 | 7.73286 | 36870 ft | 467 kts | 183° |
| 2026-05-04 03:46 | 20.49552 | 7.73805 | 36880 ft | 467 kts | 183° |
| 2026-05-04 03:46 | 20.43070 | 7.74324 | 36875 ft | 467 kts | 183° |
| 2026-05-04 03:47 | 20.36628 | 7.74841 | 36875 ft | 467 kts | 183° |
| 2026-05-04 03:47 | 20.30153 | 7.75360 | 36882 ft | 467 kts | 183° |
| 2026-05-04 03:48 | 20.23692 | 7.75880 | 36875 ft | 465 kts | 184° |
| 2026-05-04 03:48 | 20.17243 | 7.76396 | 36875 ft | 464 kts | 184° |
| 2026-05-04 03:49 | 20.10797 | 7.76911 | 36871 ft | 464 kts | 184° |
| 2026-05-04 03:49 | 20.04398 | 7.77422 | 36872 ft | 464 kts | 184° |
| 2026-05-04 03:50 | 19.97952 | 7.77936 | 36872 ft | 464 kts | 184° |
| 2026-05-04 03:50 | 19.91518 | 7.78448 | 36865 ft | 463 kts | 183° |
| 2026-05-04 03:51 | 19.85097 | 7.78961 | 36862 ft | 463 kts | 183° |
| 2026-05-04 03:51 | 19.78719 | 7.79470 | 36867 ft | 463 kts | 183° |
| 2026-05-04 03:52 | 19.72303 | 7.79981 | 36864 ft | 463 kts | 183° |
| 2026-05-04 03:52 | 19.65884 | 7.80491 | 36865 ft | 462 kts | 183° |
| 2026-05-04 03:53 | 19.59470 | 7.80998 | 36852 ft | 462 kts | 183° |
| 2026-05-04 03:53 | 19.53070 | 7.81508 | 36866 ft | 461 kts | 183° |
| 2026-05-04 03:54 | 19.46714 | 7.82021 | 36858 ft | 461 kts | 183° |
| 2026-05-04 03:54 | 19.40316 | 7.82551 | 36864 ft | 461 kts | 183° |
| 2026-05-04 03:55 | 19.33919 | 7.83081 | 36860 ft | 461 kts | 183° |
| 2026-05-04 03:55 | 19.27522 | 7.83608 | 36850 ft | 461 kts | 182° |
| 2026-05-04 03:56 | 19.21171 | 7.84130 | 36852 ft | 461 kts | 182° |
| 2026-05-04 03:56 | 19.14783 | 7.84658 | 36853 ft | 461 kts | 182° |
| 2026-05-04 03:57 | 19.08393 | 7.85185 | 36854 ft | 461 kts | 182° |
| 2026-05-04 03:57 | 19.02002 | 7.85711 | 36854 ft | 460 kts | 182° |
| 2026-05-04 03:58 | 18.92460 | 7.86491 | 36842 ft | 461 kts | 182° |
| 2026-05-04 03:58 | 18.86064 | 7.87016 | 36849 ft | 461 kts | 182° |
| 2026-05-04 03:59 | 18.79658 | 7.87544 | 36850 ft | 461 kts | 182° |
| 2026-05-04 03:59 | 18.73262 | 7.88068 | 36851 ft | 461 kts | 182° |
| 2026-05-04 04:00 | 18.66904 | 7.88590 | 36853 ft | 461 kts | 182° |
| 2026-05-04 04:00 | 18.60501 | 7.89114 | 36842 ft | 461 kts | 182° |
| 2026-05-04 04:01 | 18.54094 | 7.89636 | 36855 ft | 462 kts | 182° |
| 2026-05-04 04:01 | 18.47675 | 7.90161 | 36856 ft | 462 kts | 182° |
| 2026-05-04 04:02 | 18.41304 | 7.90682 | 36855 ft | 462 kts | 182° |
| 2026-05-04 04:02 | 18.34894 | 7.91206 | 36859 ft | 462 kts | 182° |
| 2026-05-04 04:03 | 18.28480 | 7.91728 | 36861 ft | 462 kts | 182° |
| 2026-05-04 04:03 | 18.22060 | 7.92247 | 36867 ft | 464 kts | 181° |
| 2026-05-04 04:04 | 18.15664 | 7.92769 | 36855 ft | 464 kts | 181° |
| 2026-05-04 04:04 | 18.09229 | 7.93295 | 36858 ft | 464 kts | 181° |
| 2026-05-04 04:05 | 18.02792 | 7.93818 | 36854 ft | 464 kts | 181° |
| 2026-05-04 04:05 | 17.96363 | 7.94341 | 36863 ft | 464 kts | 181° |
| 2026-05-04 04:06 | 17.89970 | 7.94860 | 36852 ft | 464 kts | 181° |
| 2026-05-04 04:06 | 17.83534 | 7.95382 | 36863 ft | 464 kts | 181° |
| 2026-05-04 04:07 | 17.77096 | 7.95904 | 36855 ft | 464 kts | 181° |
| 2026-05-04 04:07 | 17.70662 | 7.96425 | 36862 ft | 464 kts | 181° |
| 2026-05-04 04:08 | 17.64230 | 7.96946 | 36854 ft | 464 kts | 181° |
| 2026-05-04 04:08 | 17.57830 | 7.97463 | 36850 ft | 465 kts | 181° |
| 2026-05-04 04:09 | 17.51352 | 7.97987 | 36849 ft | 468 kts | 181° |
| 2026-05-04 04:09 | 17.44855 | 7.98511 | 36847 ft | 468 kts | 181° |
| 2026-05-04 04:10 | 17.38358 | 7.99036 | 36857 ft | 468 kts | 181° |
| 2026-05-04 04:10 | 17.31904 | 7.99556 | 36852 ft | 468 kts | 181° |
| 2026-05-04 04:11 | 17.25406 | 8.00080 | 36850 ft | 468 kts | 181° |
| 2026-05-04 04:11 | 17.18916 | 8.00605 | 36852 ft | 467 kts | 182° |
| 2026-05-04 04:12 | 17.12430 | 8.01126 | 36855 ft | 467 kts | 182° |
| 2026-05-04 04:12 | 17.05949 | 8.01646 | 36847 ft | 467 kts | 182° |
| 2026-05-04 04:13 | 16.99515 | 8.02163 | 36849 ft | 467 kts | 182° |
| 2026-05-04 04:13 | 16.93034 | 8.02733 | 36851 ft | 468 kts | 181° |
| 2026-05-04 04:14 | 16.86555 | 8.03365 | 36831 ft | 467 kts | 180° |
| 2026-05-04 04:14 | 16.80095 | 8.03995 | 36841 ft | 466 kts | 180° |
| 2026-05-04 04:15 | 16.73688 | 8.04618 | 36847 ft | 466 kts | 180° |
| 2026-05-04 04:15 | 16.67238 | 8.05241 | 36849 ft | 465 kts | 180° |
| 2026-05-04 04:16 | 16.60788 | 8.05862 | 36848 ft | 466 kts | 180° |
| 2026-05-04 04:16 | 16.54335 | 8.06482 | 36845 ft | 466 kts | 180° |
| 2026-05-04 04:17 | 16.47925 | 8.07092 | 36843 ft | 466 kts | 180° |
| 2026-05-04 04:17 | 16.41472 | 8.07715 | 36845 ft | 466 kts | 180° |
| 2026-05-04 04:18 | 16.35017 | 8.08336 | 36845 ft | 466 kts | 180° |
| 2026-05-04 04:18 | 16.28560 | 8.08956 | 36848 ft | 466 kts | 180° |
| 2026-05-04 04:19 | 16.22105 | 8.09574 | 36850 ft | 466 kts | 180° |
| 2026-05-04 04:19 | 16.15689 | 8.10185 | 36843 ft | 468 kts | 179° |
| 2026-05-04 04:20 | 16.09200 | 8.10806 | 36847 ft | 468 kts | 179° |
| 2026-05-04 04:20 | 16.02710 | 8.11429 | 36852 ft | 468 kts | 179° |
| 2026-05-04 04:21 | 15.96226 | 8.12050 | 36851 ft | 468 kts | 179° |
| 2026-05-04 04:21 | 15.89778 | 8.12666 | 36851 ft | 468 kts | 179° |
| 2026-05-04 04:22 | 15.83287 | 8.13285 | 36844 ft | 468 kts | 179° |
| 2026-05-04 04:22 | 15.76795 | 8.13903 | 36851 ft | 469 kts | 179° |
| 2026-05-04 04:23 | 15.70301 | 8.14523 | 36854 ft | 469 kts | 179° |
| 2026-05-04 04:23 | 15.63802 | 8.15142 | 36850 ft | 469 kts | 179° |
| 2026-05-04 04:24 | 15.57354 | 8.15756 | 36850 ft | 469 kts | 179° |
| 2026-05-04 04:24 | 15.50857 | 8.16374 | 36851 ft | 469 kts | 179° |
| 2026-05-04 04:25 | 15.44357 | 8.16992 | 36847 ft | 469 kts | 179° |
| 2026-05-04 04:25 | 15.37850 | 8.17610 | 36847 ft | 469 kts | 179° |
| 2026-05-04 04:26 | 15.31391 | 8.18224 | 36848 ft | 469 kts | 179° |
| 2026-05-04 04:26 | 15.24884 | 8.18842 | 36850 ft | 469 kts | 179° |
| 2026-05-04 04:27 | 15.18380 | 8.19458 | 36847 ft | 469 kts | 179° |
| 2026-05-04 04:27 | 15.11875 | 8.20073 | 36843 ft | 469 kts | 179° |
| 2026-05-04 04:28 | 15.05416 | 8.20684 | 36848 ft | 469 kts | 179° |
| 2026-05-04 04:28 | 14.98920 | 8.21303 | 36859 ft | 469 kts | 179° |
| 2026-05-04 04:29 | 14.92413 | 8.21923 | 36849 ft | 469 kts | 179° |
| 2026-05-04 04:29 | 14.85910 | 8.22540 | 36859 ft | 469 kts | 179° |
| 2026-05-04 04:30 | 14.79403 | 8.23158 | 36855 ft | 469 kts | 179° |
| 2026-05-04 04:30 | 14.72925 | 8.23770 | 36857 ft | 472 kts | 179° |
| 2026-05-04 04:31 | 14.66378 | 8.24391 | 36855 ft | 473 kts | 179° |
| 2026-05-04 04:31 | 14.59831 | 8.25013 | 36858 ft | 473 kts | 179° |
| 2026-05-04 04:32 | 14.53278 | 8.25633 | 36859 ft | 473 kts | 179° |
| 2026-05-04 04:32 | 14.46775 | 8.26249 | 36864 ft | 473 kts | 179° |
| 2026-05-04 04:33 | 14.40228 | 8.26868 | 36864 ft | 473 kts | 179° |
| 2026-05-04 04:33 | 14.33680 | 8.27487 | 36868 ft | 473 kts | 179° |
| 2026-05-04 04:34 | 14.27130 | 8.28106 | 36864 ft | 473 kts | 179° |
| 2026-05-04 04:34 | 14.20583 | 8.28724 | 36871 ft | 472 kts | 179° |
| 2026-05-04 04:35 | 14.14079 | 8.29337 | 36868 ft | 472 kts | 179° |
| 2026-05-04 04:35 | 14.07527 | 8.29955 | 36871 ft | 472 kts | 179° |
| 2026-05-04 04:36 | 14.00978 | 8.30571 | 36867 ft | 473 kts | 178° |
| 2026-05-04 04:36 | 13.94439 | 8.31188 | 36872 ft | 473 kts | 178° |
| 2026-05-04 04:37 | 13.81468 | 8.32409 | 36873 ft | 472 kts | 178° |
| 2026-05-04 04:38 | 13.74922 | 8.33024 | 36875 ft | 472 kts | 178° |
| 2026-05-04 04:38 | 13.68373 | 8.33637 | 36883 ft | 472 kts | 178° |
| 2026-05-04 04:39 | 13.61834 | 8.34250 | 36883 ft | 472 kts | 178° |
| 2026-05-04 04:39 | 13.55289 | 8.34863 | 36882 ft | 472 kts | 178° |
| 2026-05-04 04:40 | 13.48781 | 8.35472 | 36881 ft | 472 kts | 178° |
| 2026-05-04 04:40 | 13.42236 | 8.36085 | 36887 ft | 473 kts | 178° |
| 2026-05-04 04:41 | 13.35684 | 8.36697 | 36877 ft | 472 kts | 178° |
| 2026-05-04 04:41 | 13.29145 | 8.37308 | 36882 ft | 472 kts | 178° |
| 2026-05-04 04:42 | 13.22648 | 8.37915 | 36888 ft | 472 kts | 178° |
| 2026-05-04 04:42 | 13.16110 | 8.38525 | 36889 ft | 472 kts | 178° |
| 2026-05-04 04:43 | 13.09568 | 8.39135 | 36888 ft | 472 kts | 178° |
| 2026-05-04 04:43 | 13.03032 | 8.39769 | 36889 ft | 472 kts | 178° |
| 2026-05-04 04:44 | 12.96546 | 8.40418 | 36883 ft | 472 kts | 178° |
| 2026-05-04 04:44 | 12.90003 | 8.41070 | 36886 ft | 472 kts | 178° |
| 2026-05-04 04:45 | 12.83465 | 8.41720 | 36889 ft | 472 kts | 178° |
| 2026-05-04 04:47 | 12.60621 | 8.43979 | 36890 ft | 472 kts | 178° |
| 2026-05-04 04:47 | 12.54081 | 8.44626 | 36892 ft | 472 kts | 178° |
| 2026-05-04 04:48 | 12.47540 | 8.45273 | 36894 ft | 472 kts | 178° |
| 2026-05-04 04:49 | 12.31234 | 8.46882 | 36895 ft | 472 kts | 178° |
| 2026-05-04 04:49 | 12.24696 | 8.47525 | 36894 ft | 472 kts | 177° |
| 2026-05-04 04:50 | 12.18153 | 8.48171 | 36901 ft | 472 kts | 177° |
| 2026-05-04 04:50 | 12.11655 | 8.48715 | 36902 ft | 470 kts | 182° |
| 2026-05-04 04:51 | 12.05199 | 8.48031 | 36904 ft | 465 kts | 196° |
| 2026-05-04 04:51 | 12.00113 | 8.46327 | 36906 ft | 462 kts | 207° |